sensor_id;sensor_type;location;lat;lon;timestamp;temperature;humidity
26707;DHT22;14319;49.422;10.934;2023-03-17T00:00:41;3.20;74.20
26707;DHT22;14319;49.422;10.934;2023-03-17T00:02:43;3.20;73.80
26707;DHT22;14319;49.422;10.934;2023-03-17T00:04:45;3.30;73.70
26707;DHT22;14319;49.422;10.934;2023-03-17T00:06:46;3.30;72.90
26707;DHT22;14319;49.422;10.934;2023-03-17T00:08:46;3.40;72.70
26707;DHT22;14319;49.422;10.934;2023-03-17T00:10:48;3.40;71.80
26707;DHT22;14319;49.422;10.934;2023-03-17T00:12:50;3.40;72.90
26707;DHT22;14319;49.422;10.934;2023-03-17T00:14:52;3.50;72.40
26707;DHT22;14319;49.422;10.934;2023-03-17T00:16:53;3.50;71.20
26707;DHT22;14319;49.422;10.934;2023-03-17T00:18:55;3.50;71.80
26707;DHT22;14319;49.422;10.934;2023-03-17T00:20:57;3.50;71.80
26707;DHT22;14319;49.422;10.934;2023-03-17T00:22:59;3.40;71.80
26707;DHT22;14319;49.422;10.934;2023-03-17T00:25:02;3.50;72.70
26707;DHT22;14319;49.422;10.934;2023-03-17T00:27:11;3.40;72.90
26707;DHT22;14319;49.422;10.934;2023-03-17T00:29:12;3.50;73.10
26707;DHT22;14319;49.422;10.934;2023-03-17T00:31:21;3.50;72.40
26707;DHT22;14319;49.422;10.934;2023-03-17T00:33:25;3.40;72.20
26707;DHT22;14319;49.422;10.934;2023-03-17T00:35:28;3.30;72.70
26707;DHT22;14319;49.422;10.934;2023-03-17T00:37:28;3.40;72.70
26707;DHT22;14319;49.422;10.934;2023-03-17T00:39:29;3.40;72.80
26707;DHT22;14319;49.422;10.934;2023-03-17T00:41:30;3.40;72.10
26707;DHT22;14319;49.422;10.934;2023-03-17T00:43:33;3.40;72.80
26707;DHT22;14319;49.422;10.934;2023-03-17T00:45:34;3.30;72.50
26707;DHT22;14319;49.422;10.934;2023-03-17T00:47:35;3.40;72.90
26707;DHT22;14319;49.422;10.934;2023-03-17T00:49:35;3.40;71.60
26707;DHT22;14319;49.422;10.934;2023-03-17T00:51:36;3.50;71.20
26707;DHT22;14319;49.422;10.934;2023-03-17T00:53:37;3.50;70.80
26707;DHT22;14319;49.422;10.934;2023-03-17T00:55:38;3.60;70.50
26707;DHT22;14319;49.422;10.934;2023-03-17T00:57:39;3.60;70.60
26707;DHT22;14319;49.422;10.934;2023-03-17T00:59:41;3.60;70.70
26707;DHT22;14319;49.422;10.934;2023-03-17T01:01:44;3.60;71.70
26707;DHT22;14319;49.422;10.934;2023-03-17T01:03:45;3.50;71.70
26707;DHT22;14319;49.422;10.934;2023-03-17T01:05:48;3.60;70.80
26707;DHT22;14319;49.422;10.934;2023-03-17T01:07:52;3.60;70.00
26707;DHT22;14319;49.422;10.934;2023-03-17T01:09:53;3.50;70.60
26707;DHT22;14319;49.422;10.934;2023-03-17T01:11:54;3.50;70.30
26707;DHT22;14319;49.422;10.934;2023-03-17T01:13:55;3.50;70.40
26707;DHT22;14319;49.422;10.934;2023-03-17T01:15:56;3.50;69.90
26707;DHT22;14319;49.422;10.934;2023-03-17T01:17:59;3.60;69.90
26707;DHT22;14319;49.422;10.934;2023-03-17T01:20:00;3.50;70.10
26707;DHT22;14319;49.422;10.934;2023-03-17T01:22:02;3.50;70.20
26707;DHT22;14319;49.422;10.934;2023-03-17T01:24:03;3.40;70.30
26707;DHT22;14319;49.422;10.934;2023-03-17T01:26:04;3.40;70.80
26707;DHT22;14319;49.422;10.934;2023-03-17T01:28:05;3.40;70.70
26707;DHT22;14319;49.422;10.934;2023-03-17T01:32:19;3.30;70.20
26707;DHT22;14319;49.422;10.934;2023-03-17T01:34:19;3.30;70.80
26707;DHT22;14319;49.422;10.934;2023-03-17T01:36:21;3.30;70.90
26707;DHT22;14319;49.422;10.934;2023-03-17T01:38:22;3.30;70.90
26707;DHT22;14319;49.422;10.934;2023-03-17T01:40:33;3.30;71.30
26707;DHT22;14319;49.422;10.934;2023-03-17T01:42:34;3.30;71.40
26707;DHT22;14319;49.422;10.934;2023-03-17T01:44:34;3.30;71.70
26707;DHT22;14319;49.422;10.934;2023-03-17T01:46:35;3.20;71.90
26707;DHT22;14319;49.422;10.934;2023-03-17T01:48:44;3.20;70.70
26707;DHT22;14319;49.422;10.934;2023-03-17T01:50:46;3.20;71.70
26707;DHT22;14319;49.422;10.934;2023-03-17T01:52:47;3.20;71.80
26707;DHT22;14319;49.422;10.934;2023-03-17T01:54:57;3.20;71.80
26707;DHT22;14319;49.422;10.934;2023-03-17T01:57:07;3.10;70.60
26707;DHT22;14319;49.422;10.934;2023-03-17T01:59:12;3.10;71.50
26707;DHT22;14319;49.422;10.934;2023-03-17T02:01:15;3.00;71.70
26707;DHT22;14319;49.422;10.934;2023-03-17T02:03:16;2.90;70.80
26707;DHT22;14319;49.422;10.934;2023-03-17T02:05:24;2.90;71.90
26707;DHT22;14319;49.422;10.934;2023-03-17T02:07:26;2.90;72.90
26707;DHT22;14319;49.422;10.934;2023-03-17T02:09:27;3.00;72.40
26707;DHT22;14319;49.422;10.934;2023-03-17T02:11:28;3.00;72.00
26707;DHT22;14319;49.422;10.934;2023-03-17T02:13:30;2.90;71.40
26707;DHT22;14319;49.422;10.934;2023-03-17T02:15:49;2.90;71.90
26707;DHT22;14319;49.422;10.934;2023-03-17T02:17:52;2.90;72.50
26707;DHT22;14319;49.422;10.934;2023-03-17T02:19:54;2.90;72.40
26707;DHT22;14319;49.422;10.934;2023-03-17T02:21:57;2.90;72.40
26707;DHT22;14319;49.422;10.934;2023-03-17T02:24:00;3.00;72.30
26707;DHT22;14319;49.422;10.934;2023-03-17T02:26:01;3.10;71.60
26707;DHT22;14319;49.422;10.934;2023-03-17T02:28:09;3.10;71.50
26707;DHT22;14319;49.422;10.934;2023-03-17T02:30:17;3.10;71.40
26707;DHT22;14319;49.422;10.934;2023-03-17T02:32:18;3.10;71.20
26707;DHT22;14319;49.422;10.934;2023-03-17T02:34:19;3.20;70.80
26707;DHT22;14319;49.422;10.934;2023-03-17T02:36:21;3.20;71.00
26707;DHT22;14319;49.422;10.934;2023-03-17T02:38:21;3.20;70.60
26707;DHT22;14319;49.422;10.934;2023-03-17T02:40:22;3.20;69.00
26707;DHT22;14319;49.422;10.934;2023-03-17T02:42:24;3.20;70.20
26707;DHT22;14319;49.422;10.934;2023-03-17T02:44:24;3.20;70.80
26707;DHT22;14319;49.422;10.934;2023-03-17T02:46:27;3.20;69.90
26707;DHT22;14319;49.422;10.934;2023-03-17T02:48:27;3.20;69.90
26707;DHT22;14319;49.422;10.934;2023-03-17T02:50:28;3.30;69.10
26707;DHT22;14319;49.422;10.934;2023-03-17T02:52:30;3.20;70.20
26707;DHT22;14319;49.422;10.934;2023-03-17T02:54:31;3.20;70.80
26707;DHT22;14319;49.422;10.934;2023-03-17T02:56:32;3.10;70.20
26707;DHT22;14319;49.422;10.934;2023-03-17T02:58:32;3.10;69.90
26707;DHT22;14319;49.422;10.934;2023-03-17T03:00:33;3.10;70.70
26707;DHT22;14319;49.422;10.934;2023-03-17T03:02:34;3.20;68.80
26707;DHT22;14319;49.422;10.934;2023-03-17T03:04:35;3.20;69.20
26707;DHT22;14319;49.422;10.934;2023-03-17T03:06:35;3.30;67.80
26707;DHT22;14319;49.422;10.934;2023-03-17T03:08:37;3.30;68.80
26707;DHT22;14319;49.422;10.934;2023-03-17T03:10:37;3.20;69.20
26707;DHT22;14319;49.422;10.934;2023-03-17T03:12:38;3.20;69.70
26707;DHT22;14319;49.422;10.934;2023-03-17T03:14:39;3.20;69.20
26707;DHT22;14319;49.422;10.934;2023-03-17T03:16:40;3.20;69.40
26707;DHT22;14319;49.422;10.934;2023-03-17T03:18:41;3.20;69.60
26707;DHT22;14319;49.422;10.934;2023-03-17T03:20:43;3.20;68.40
26707;DHT22;14319;49.422;10.934;2023-03-17T03:22:43;3.20;68.40
26707;DHT22;14319;49.422;10.934;2023-03-17T03:24:44;3.20;69.00
26707;DHT22;14319;49.422;10.934;2023-03-17T03:26:45;3.20;68.90
26707;DHT22;14319;49.422;10.934;2023-03-17T03:28:45;3.20;69.00
26707;DHT22;14319;49.422;10.934;2023-03-17T03:30:46;3.10;69.00
26707;DHT22;14319;49.422;10.934;2023-03-17T03:32:47;3.10;69.40
26707;DHT22;14319;49.422;10.934;2023-03-17T03:34:47;3.10;69.80
26707;DHT22;14319;49.422;10.934;2023-03-17T03:36:48;3.10;69.80
26707;DHT22;14319;49.422;10.934;2023-03-17T03:38:49;3.10;68.70
26707;DHT22;14319;49.422;10.934;2023-03-17T03:40:49;3.20;68.10
26707;DHT22;14319;49.422;10.934;2023-03-17T03:42:50;3.20;67.30
26707;DHT22;14319;49.422;10.934;2023-03-17T03:44:50;3.20;66.80
26707;DHT22;14319;49.422;10.934;2023-03-17T03:46:51;3.20;66.90
26707;DHT22;14319;49.422;10.934;2023-03-17T03:48:53;3.20;67.80
26707;DHT22;14319;49.422;10.934;2023-03-17T03:50:58;3.20;67.20
26707;DHT22;14319;49.422;10.934;2023-03-17T03:52:59;3.20;67.50
26707;DHT22;14319;49.422;10.934;2023-03-17T03:55:00;3.20;67.60
26707;DHT22;14319;49.422;10.934;2023-03-17T03:57:00;3.20;68.00
26707;DHT22;14319;49.422;10.934;2023-03-17T03:59:02;3.20;68.20
26707;DHT22;14319;49.422;10.934;2023-03-17T04:01:07;3.20;66.50
26707;DHT22;14319;49.422;10.934;2023-03-17T04:03:08;3.20;67.40
26707;DHT22;14319;49.422;10.934;2023-03-17T04:05:09;3.10;68.50
26707;DHT22;14319;49.422;10.934;2023-03-17T04:07:10;3.00;70.40
26707;DHT22;14319;49.422;10.934;2023-03-17T04:09:11;3.00;70.10
26707;DHT22;14319;49.422;10.934;2023-03-17T04:11:12;3.00;70.10
26707;DHT22;14319;49.422;10.934;2023-03-17T04:13:13;3.00;68.80
26707;DHT22;14319;49.422;10.934;2023-03-17T04:15:16;3.00;68.20
26707;DHT22;14319;49.422;10.934;2023-03-17T04:17:17;3.10;69.20
26707;DHT22;14319;49.422;10.934;2023-03-17T04:19:17;3.00;68.20
26707;DHT22;14319;49.422;10.934;2023-03-17T04:21:18;3.00;68.00
26707;DHT22;14319;49.422;10.934;2023-03-17T04:23:19;3.10;68.10
26707;DHT22;14319;49.422;10.934;2023-03-17T04:25:20;3.10;67.70
26707;DHT22;14319;49.422;10.934;2023-03-17T04:27:21;3.10;67.40
26707;DHT22;14319;49.422;10.934;2023-03-17T04:29:21;3.10;67.00
26707;DHT22;14319;49.422;10.934;2023-03-17T04:31:22;3.10;67.30
26707;DHT22;14319;49.422;10.934;2023-03-17T04:33:23;3.10;67.70
26707;DHT22;14319;49.422;10.934;2023-03-17T04:35:23;3.10;67.50
26707;DHT22;14319;49.422;10.934;2023-03-17T04:37:24;3.10;67.90
26707;DHT22;14319;49.422;10.934;2023-03-17T04:39:25;3.00;68.60
26707;DHT22;14319;49.422;10.934;2023-03-17T04:41:26;2.90;70.00
26707;DHT22;14319;49.422;10.934;2023-03-17T04:43:27;2.90;70.50
26707;DHT22;14319;49.422;10.934;2023-03-17T04:45:28;2.90;70.50
26707;DHT22;14319;49.422;10.934;2023-03-17T04:47:28;2.90;70.40
26707;DHT22;14319;49.422;10.934;2023-03-17T04:49:29;2.90;69.60
26707;DHT22;14319;49.422;10.934;2023-03-17T04:51:30;2.80;70.50
26707;DHT22;14319;49.422;10.934;2023-03-17T04:53:31;2.90;70.00
26707;DHT22;14319;49.422;10.934;2023-03-17T04:55:32;2.80;69.90
26707;DHT22;14319;49.422;10.934;2023-03-17T04:57:33;2.80;71.00
26707;DHT22;14319;49.422;10.934;2023-03-17T04:59:33;2.80;71.30
26707;DHT22;14319;49.422;10.934;2023-03-17T05:01:34;2.80;70.30
26707;DHT22;14319;49.422;10.934;2023-03-17T05:03:35;2.80;70.80
26707;DHT22;14319;49.422;10.934;2023-03-17T05:05:36;2.80;70.90
26707;DHT22;14319;49.422;10.934;2023-03-17T05:07:37;2.80;70.30
26707;DHT22;14319;49.422;10.934;2023-03-17T05:09:37;2.80;70.60
26707;DHT22;14319;49.422;10.934;2023-03-17T05:11:38;2.70;70.40
26707;DHT22;14319;49.422;10.934;2023-03-17T05:13:40;2.70;69.90
26707;DHT22;14319;49.422;10.934;2023-03-17T05:15:48;2.70;70.50
26707;DHT22;14319;49.422;10.934;2023-03-17T05:17:50;2.70;70.40
26707;DHT22;14319;49.422;10.934;2023-03-17T05:19:51;2.70;70.30
26707;DHT22;14319;49.422;10.934;2023-03-17T05:21:51;2.80;69.30
26707;DHT22;14319;49.422;10.934;2023-03-17T05:23:52;2.70;70.30
26707;DHT22;14319;49.422;10.934;2023-03-17T05:25:52;2.60;70.30
26707;DHT22;14319;49.422;10.934;2023-03-17T05:27:53;2.50;70.60
26707;DHT22;14319;49.422;10.934;2023-03-17T05:29:54;2.50;70.70
26707;DHT22;14319;49.422;10.934;2023-03-17T05:31:55;2.50;71.50
26707;DHT22;14319;49.422;10.934;2023-03-17T05:33:55;2.40;71.00
26707;DHT22;14319;49.422;10.934;2023-03-17T05:35:56;2.40;71.80
26707;DHT22;14319;49.422;10.934;2023-03-17T05:37:57;2.40;71.20
26707;DHT22;14319;49.422;10.934;2023-03-17T05:39:57;2.40;71.00
26707;DHT22;14319;49.422;10.934;2023-03-17T05:41:58;2.50;71.00
26707;DHT22;14319;49.422;10.934;2023-03-17T05:43:59;2.50;70.20
26707;DHT22;14319;49.422;10.934;2023-03-17T05:46:00;2.50;70.70
26707;DHT22;14319;49.422;10.934;2023-03-17T05:48:01;2.40;70.90
26707;DHT22;14319;49.422;10.934;2023-03-17T05:50:03;2.30;70.90
26707;DHT22;14319;49.422;10.934;2023-03-17T05:52:04;2.30;72.20
26707;DHT22;14319;49.422;10.934;2023-03-17T05:54:05;2.30;71.80
26707;DHT22;14319;49.422;10.934;2023-03-17T05:56:07;2.40;70.80
26707;DHT22;14319;49.422;10.934;2023-03-17T05:58:08;2.40;71.90
26707;DHT22;14319;49.422;10.934;2023-03-17T06:00:10;2.40;71.60
26707;DHT22;14319;49.422;10.934;2023-03-17T06:02:11;2.50;70.40
26707;DHT22;14319;49.422;10.934;2023-03-17T06:04:13;2.60;69.50
26707;DHT22;14319;49.422;10.934;2023-03-17T06:06:13;2.60;70.90
26707;DHT22;14319;49.422;10.934;2023-03-17T06:08:15;2.60;71.60
26707;DHT22;14319;49.422;10.934;2023-03-17T06:10:16;2.50;71.50
26707;DHT22;14319;49.422;10.934;2023-03-17T06:12:17;2.50;71.10
26707;DHT22;14319;49.422;10.934;2023-03-17T06:14:17;2.50;72.20
26707;DHT22;14319;49.422;10.934;2023-03-17T06:16:18;2.60;71.60
26707;DHT22;14319;49.422;10.934;2023-03-17T06:18:20;2.70;70.00
26707;DHT22;14319;49.422;10.934;2023-03-17T06:20:20;2.70;70.00
26707;DHT22;14319;49.422;10.934;2023-03-17T06:22:21;2.70;70.50
26707;DHT22;14319;49.422;10.934;2023-03-17T06:24:21;2.70;71.60
26707;DHT22;14319;49.422;10.934;2023-03-17T06:26:22;2.70;71.60
26707;DHT22;14319;49.422;10.934;2023-03-17T06:28:23;2.80;71.80
26707;DHT22;14319;49.422;10.934;2023-03-17T06:30:23;2.80;71.10
26707;DHT22;14319;49.422;10.934;2023-03-17T06:32:24;2.90;70.70
26707;DHT22;14319;49.422;10.934;2023-03-17T06:34:25;2.90;71.80
26707;DHT22;14319;49.422;10.934;2023-03-17T06:36:26;2.90;70.70
26707;DHT22;14319;49.422;10.934;2023-03-17T06:38:27;3.00;70.20
26707;DHT22;14319;49.422;10.934;2023-03-17T06:40:28;3.00;70.30
26707;DHT22;14319;49.422;10.934;2023-03-17T06:42:29;3.00;70.00
26707;DHT22;14319;49.422;10.934;2023-03-17T06:44:29;3.10;69.60
26707;DHT22;14319;49.422;10.934;2023-03-17T06:46:31;3.10;70.80
26707;DHT22;14319;49.422;10.934;2023-03-17T06:48:32;3.00;70.80
26707;DHT22;14319;49.422;10.934;2023-03-17T06:50:33;3.00;71.50
26707;DHT22;14319;49.422;10.934;2023-03-17T06:52:34;3.00;71.60
26707;DHT22;14319;49.422;10.934;2023-03-17T06:54:35;3.10;71.40
26707;DHT22;14319;49.422;10.934;2023-03-17T06:56:35;3.00;71.80
26707;DHT22;14319;49.422;10.934;2023-03-17T06:58:36;3.10;71.80
26707;DHT22;14319;49.422;10.934;2023-03-17T07:00:37;3.10;71.00
26707;DHT22;14319;49.422;10.934;2023-03-17T07:02:39;3.20;71.30
26707;DHT22;14319;49.422;10.934;2023-03-17T07:04:39;3.20;70.60
26707;DHT22;14319;49.422;10.934;2023-03-17T07:06:40;3.20;70.80
26707;DHT22;14319;49.422;10.934;2023-03-17T07:08:42;3.20;70.30
26707;DHT22;14319;49.422;10.934;2023-03-17T07:10:42;3.20;70.40
26707;DHT22;14319;49.422;10.934;2023-03-17T07:12:44;3.30;68.40
26707;DHT22;14319;49.422;10.934;2023-03-17T07:14:44;3.40;68.20
26707;DHT22;14319;49.422;10.934;2023-03-17T07:16:45;3.50;67.80
26707;DHT22;14319;49.422;10.934;2023-03-17T07:18:47;3.60;67.80
26707;DHT22;14319;49.422;10.934;2023-03-17T07:20:48;3.60;68.20
26707;DHT22;14319;49.422;10.934;2023-03-17T07:22:49;3.70;68.00
26707;DHT22;14319;49.422;10.934;2023-03-17T07:24:49;3.70;68.60
26707;DHT22;14319;49.422;10.934;2023-03-17T07:26:51;3.80;66.50
26707;DHT22;14319;49.422;10.934;2023-03-17T07:28:52;3.90;66.90
26707;DHT22;14319;49.422;10.934;2023-03-17T07:30:52;3.90;67.70
26707;DHT22;14319;49.422;10.934;2023-03-17T07:32:53;4.00;66.70
26707;DHT22;14319;49.422;10.934;2023-03-17T07:34:54;4.00;67.30
26707;DHT22;14319;49.422;10.934;2023-03-17T07:36:55;4.00;68.20
26707;DHT22;14319;49.422;10.934;2023-03-17T07:38:55;4.20;66.50
26707;DHT22;14319;49.422;10.934;2023-03-17T07:40:56;4.30;65.20
26707;DHT22;14319;49.422;10.934;2023-03-17T07:42:57;4.40;66.00
26707;DHT22;14319;49.422;10.934;2023-03-17T07:44:57;4.50;66.00
26707;DHT22;14319;49.422;10.934;2023-03-17T07:46:58;4.50;65.70
26707;DHT22;14319;49.422;10.934;2023-03-17T07:48:59;4.60;66.50
26707;DHT22;14319;49.422;10.934;2023-03-17T07:51:00;4.70;65.50
26707;DHT22;14319;49.422;10.934;2023-03-17T07:53:01;4.80;63.60
26707;DHT22;14319;49.422;10.934;2023-03-17T07:55:04;5.00;64.10
26707;DHT22;14319;49.422;10.934;2023-03-17T07:57:07;5.00;63.40
26707;DHT22;14319;49.422;10.934;2023-03-17T07:59:08;5.10;62.70
26707;DHT22;14319;49.422;10.934;2023-03-17T08:01:10;5.20;62.10
26707;DHT22;14319;49.422;10.934;2023-03-17T08:03:10;5.20;62.70
26707;DHT22;14319;49.422;10.934;2023-03-17T08:05:16;5.30;63.10
26707;DHT22;14319;49.422;10.934;2023-03-17T08:07:16;5.40;62.10
26707;DHT22;14319;49.422;10.934;2023-03-17T08:09:17;5.40;61.20
26707;DHT22;14319;49.422;10.934;2023-03-17T08:11:18;5.40;61.50
26707;DHT22;14319;49.422;10.934;2023-03-17T08:13:19;5.50;62.40
26707;DHT22;14319;49.422;10.934;2023-03-17T08:15:20;5.60;62.20
26707;DHT22;14319;49.422;10.934;2023-03-17T08:17:21;5.60;62.40
26707;DHT22;14319;49.422;10.934;2023-03-17T08:19:26;5.70;62.60
26707;DHT22;14319;49.422;10.934;2023-03-17T08:21:26;5.70;62.10
26707;DHT22;14319;49.422;10.934;2023-03-17T08:23:27;5.70;63.10
26707;DHT22;14319;49.422;10.934;2023-03-17T08:25:28;5.80;62.50
26707;DHT22;14319;49.422;10.934;2023-03-17T08:27:29;5.80;61.80
26707;DHT22;14319;49.422;10.934;2023-03-17T08:29:29;5.80;62.20
26707;DHT22;14319;49.422;10.934;2023-03-17T08:31:30;5.80;63.10
26707;DHT22;14319;49.422;10.934;2023-03-17T08:33:33;6.00;61.30
26707;DHT22;14319;49.422;10.934;2023-03-17T08:35:35;6.10;60.60
26707;DHT22;14319;49.422;10.934;2023-03-17T08:37:36;6.30;59.70
26707;DHT22;14319;49.422;10.934;2023-03-17T08:39:37;6.30;60.80
26707;DHT22;14319;49.422;10.934;2023-03-17T08:41:38;6.30;61.00
26707;DHT22;14319;49.422;10.934;2023-03-17T08:43:40;6.20;61.60
26707;DHT22;14319;49.422;10.934;2023-03-17T08:45:41;6.20;61.90
26707;DHT22;14319;49.422;10.934;2023-03-17T08:47:43;6.30;61.70
26707;DHT22;14319;49.422;10.934;2023-03-17T08:49:44;6.40;61.70
26707;DHT22;14319;49.422;10.934;2023-03-17T08:51:44;6.40;62.10
26707;DHT22;14319;49.422;10.934;2023-03-17T08:53:46;6.50;61.50
26707;DHT22;14319;49.422;10.934;2023-03-17T08:55:46;6.50;60.80
26707;DHT22;14319;49.422;10.934;2023-03-17T08:57:47;6.50;61.90
26707;DHT22;14319;49.422;10.934;2023-03-17T08:59:48;6.60;62.20
26707;DHT22;14319;49.422;10.934;2023-03-17T09:01:48;6.60;62.20
26707;DHT22;14319;49.422;10.934;2023-03-17T09:03:51;6.70;61.50
26707;DHT22;14319;49.422;10.934;2023-03-17T09:05:52;6.90;60.40
26707;DHT22;14319;49.422;10.934;2023-03-17T09:07:54;6.90;60.50
26707;DHT22;14319;49.422;10.934;2023-03-17T09:09:54;6.90;61.40
26707;DHT22;14319;49.422;10.934;2023-03-17T09:11:56;6.90;60.00
26707;DHT22;14319;49.422;10.934;2023-03-17T09:13:57;7.00;59.10
26707;DHT22;14319;49.422;10.934;2023-03-17T09:15:58;7.20;59.40
26707;DHT22;14319;49.422;10.934;2023-03-17T09:18:00;7.30;59.30
26707;DHT22;14319;49.422;10.934;2023-03-17T09:20:02;7.40;59.30
26707;DHT22;14319;49.422;10.934;2023-03-17T09:22:03;7.40;59.00
26707;DHT22;14319;49.422;10.934;2023-03-17T09:24:04;7.50;58.40
26707;DHT22;14319;49.422;10.934;2023-03-17T09:26:05;7.60;58.70
26707;DHT22;14319;49.422;10.934;2023-03-17T09:28:05;7.70;58.80
26707;DHT22;14319;49.422;10.934;2023-03-17T09:30:10;7.80;58.70
26707;DHT22;14319;49.422;10.934;2023-03-17T09:32:12;7.80;59.60
26707;DHT22;14319;49.422;10.934;2023-03-17T09:34:13;7.90;59.00
26707;DHT22;14319;49.422;10.934;2023-03-17T09:36:13;8.00;59.30
26707;DHT22;14319;49.422;10.934;2023-03-17T09:38:14;8.10;58.70
26707;DHT22;14319;49.422;10.934;2023-03-17T09:40:17;8.10;58.70
26707;DHT22;14319;49.422;10.934;2023-03-17T09:44:50;8.30;58.80
26707;DHT22;14319;49.422;10.934;2023-03-17T09:47:01;8.40;57.40
26707;DHT22;14319;49.422;10.934;2023-03-17T09:49:10;8.50;57.60
26707;DHT22;14319;49.422;10.934;2023-03-17T09:51:13;8.70;56.30
26707;DHT22;14319;49.422;10.934;2023-03-17T09:55:34;8.90;56.70
26707;DHT22;14319;49.422;10.934;2023-03-17T09:57:39;9.00;54.20
26707;DHT22;14319;49.422;10.934;2023-03-17T09:59:43;9.10;53.80
26707;DHT22;14319;49.422;10.934;2023-03-17T10:01:45;9.20;54.10
26707;DHT22;14319;49.422;10.934;2023-03-17T10:03:46;9.30;53.30
26707;DHT22;14319;49.422;10.934;2023-03-17T10:05:47;9.30;54.70
26707;DHT22;14319;49.422;10.934;2023-03-17T10:08:11;9.40;54.00
26707;DHT22;14319;49.422;10.934;2023-03-17T10:10:19;9.50;55.00
26707;DHT22;14319;49.422;10.934;2023-03-17T10:15:05;9.70;54.60
26707;DHT22;14319;49.422;10.934;2023-03-17T10:17:24;9.70;55.20
26707;DHT22;14319;49.422;10.934;2023-03-17T10:19:29;9.80;53.90
26707;DHT22;14319;49.422;10.934;2023-03-17T10:21:33;9.80;54.40
26707;DHT22;14319;49.422;10.934;2023-03-17T10:23:36;9.90;54.00
26707;DHT22;14319;49.422;10.934;2023-03-17T10:25:37;10.00;54.10
26707;DHT22;14319;49.422;10.934;2023-03-17T10:27:38;10.00;54.40
26707;DHT22;14319;49.422;10.934;2023-03-17T10:29:39;10.00;53.90
26707;DHT22;14319;49.422;10.934;2023-03-17T10:31:40;10.10;53.20
26707;DHT22;14319;49.422;10.934;2023-03-17T10:33:42;10.20;53.90
26707;DHT22;14319;49.422;10.934;2023-03-17T10:35:43;10.20;54.40
26707;DHT22;14319;49.422;10.934;2023-03-17T10:37:47;10.40;54.40
26707;DHT22;14319;49.422;10.934;2023-03-17T10:39:53;10.40;54.60
26707;DHT22;14319;49.422;10.934;2023-03-17T10:46:37;10.70;53.20
26707;DHT22;14319;49.422;10.934;2023-03-17T10:48:37;10.70;54.00
26707;DHT22;14319;49.422;10.934;2023-03-17T10:50:39;10.70;54.80
26707;DHT22;14319;49.422;10.934;2023-03-17T10:52:40;10.70;53.50
26707;DHT22;14319;49.422;10.934;2023-03-17T10:54:46;10.70;53.30
26707;DHT22;14319;49.422;10.934;2023-03-17T10:56:50;10.80;52.80
26707;DHT22;14319;49.422;10.934;2023-03-17T10:58:55;10.80;53.30
26707;DHT22;14319;49.422;10.934;2023-03-17T11:01:04;10.80;53.30
26707;DHT22;14319;49.422;10.934;2023-03-17T11:03:12;10.90;52.60
26707;DHT22;14319;49.422;10.934;2023-03-17T11:05:21;10.90;52.60
26707;DHT22;14319;49.422;10.934;2023-03-17T11:07:35;11.00;51.90
26707;DHT22;14319;49.422;10.934;2023-03-17T11:09:37;11.00;52.00
26707;DHT22;14319;49.422;10.934;2023-03-17T11:11:44;11.10;53.70
26707;DHT22;14319;49.422;10.934;2023-03-17T11:13:45;11.10;51.90
26707;DHT22;14319;49.422;10.934;2023-03-17T11:15:52;11.10;53.20
26707;DHT22;14319;49.422;10.934;2023-03-17T11:18:01;11.30;53.00
26707;DHT22;14319;49.422;10.934;2023-03-17T11:22:39;11.50;52.00
26707;DHT22;14319;49.422;10.934;2023-03-17T11:25:13;11.70;52.10
26707;DHT22;14319;49.422;10.934;2023-03-17T11:27:38;11.80;54.10
26707;DHT22;14319;49.422;10.934;2023-03-17T11:32:50;12.20;50.50
26707;DHT22;14319;49.422;10.934;2023-03-17T11:37:07;12.40;49.90
26707;DHT22;14319;49.422;10.934;2023-03-17T11:39:15;12.50;50.20
26707;DHT22;14319;49.422;10.934;2023-03-17T11:46:08;12.70;51.00
26707;DHT22;14319;49.422;10.934;2023-03-17T11:50:40;12.90;50.40
26707;DHT22;14319;49.422;10.934;2023-03-17T11:55:07;13.20;50.80
26707;DHT22;14319;49.422;10.934;2023-03-17T11:57:22;13.30;49.60
26707;DHT22;14319;49.422;10.934;2023-03-17T11:59:34;13.50;51.00
26707;DHT22;14319;49.422;10.934;2023-03-17T12:01:46;13.50;49.40
26707;DHT22;14319;49.422;10.934;2023-03-17T12:06:03;13.60;49.30
26707;DHT22;14319;49.422;10.934;2023-03-17T12:08:10;13.70;49.20
26707;DHT22;14319;49.422;10.934;2023-03-17T12:12:38;13.80;49.90
26707;DHT22;14319;49.422;10.934;2023-03-17T12:14:50;13.90;49.60
26707;DHT22;14319;49.422;10.934;2023-03-17T12:16:59;13.80;49.10
26707;DHT22;14319;49.422;10.934;2023-03-17T12:21:29;13.90;49.10
26707;DHT22;14319;49.422;10.934;2023-03-17T12:25:56;13.80;49.90
26707;DHT22;14319;49.422;10.934;2023-03-17T12:28:05;13.80;50.10
26707;DHT22;14319;49.422;10.934;2023-03-17T12:32:53;13.80;48.90
26707;DHT22;14319;49.422;10.934;2023-03-17T12:34:57;14.00;47.70
26707;DHT22;14319;49.422;10.934;2023-03-17T12:36:59;14.10;47.00
26707;DHT22;14319;49.422;10.934;2023-03-17T12:39:01;14.20;47.70
26707;DHT22;14319;49.422;10.934;2023-03-17T12:41:29;14.20;47.80
26707;DHT22;14319;49.422;10.934;2023-03-17T12:52:02;14.20;47.90
26707;DHT22;14319;49.422;10.934;2023-03-17T12:53:46;14.20;49.90
26707;DHT22;14319;49.422;10.934;2023-03-17T12:55:50;14.20;50.50
26707;DHT22;14319;49.422;10.934;2023-03-17T12:58:03;14.30;50.40
26707;DHT22;14319;49.422;10.934;2023-03-17T13:02:31;14.50;49.50
26707;DHT22;14319;49.422;10.934;2023-03-17T13:04:35;14.50;50.90
26707;DHT22;14319;49.422;10.934;2023-03-17T13:06:45;14.40;48.60
26707;DHT22;14319;49.422;10.934;2023-03-17T13:08:52;14.40;48.70
26707;DHT22;14319;49.422;10.934;2023-03-17T13:11:44;14.50;50.20
26707;DHT22;14319;49.422;10.934;2023-03-17T13:15:55;14.70;50.60
26707;DHT22;14319;49.422;10.934;2023-03-17T13:20:19;15.00;49.10
26707;DHT22;14319;49.422;10.934;2023-03-17T13:24:33;15.20;49.20
26707;DHT22;14319;49.422;10.934;2023-03-17T13:27:00;15.20;49.00
26707;DHT22;14319;49.422;10.934;2023-03-17T13:29:01;15.20;48.30
26707;DHT22;14319;49.422;10.934;2023-03-17T13:33:31;15.30;46.40
26707;DHT22;14319;49.422;10.934;2023-03-17T13:40:39;15.60;45.90
26707;DHT22;14319;49.422;10.934;2023-03-17T13:45:18;15.80;46.10
26707;DHT22;14319;49.422;10.934;2023-03-17T13:49:27;16.00;44.90
26707;DHT22;14319;49.422;10.934;2023-03-17T13:51:32;16.00;48.00
26707;DHT22;14319;49.422;10.934;2023-03-17T13:53:40;16.10;47.60
26707;DHT22;14319;49.422;10.934;2023-03-17T13:56:04;16.10;46.50
26707;DHT22;14319;49.422;10.934;2023-03-17T14:02:24;16.20;47.00
26707;DHT22;14319;49.422;10.934;2023-03-17T14:04:42;16.30;45.60
26707;DHT22;14319;49.422;10.934;2023-03-17T14:06:45;16.30;46.60
26707;DHT22;14319;49.422;10.934;2023-03-17T14:08:51;16.20;47.10
26707;DHT22;14319;49.422;10.934;2023-03-17T14:10:54;16.20;47.60